createdAt,value
2018-04-14T00:01:33.753Z,30.33
2018-04-14T00:04:00.201Z,30.47
2018-04-14T00:06:26.713Z,30.17
2018-04-14T00:08:53.161Z,32.20
2018-04-14T00:11:19.593Z,31.13
2018-04-14T00:13:46.053Z,30.33
2018-04-14T00:16:12.510Z,30.47
2018-04-14T00:18:39.988Z,31.73
2018-04-14T00:21:07.274Z,31.83
2018-04-14T00:23:33.713Z,33.33
2018-04-14T00:26:00.147Z,32.60
2018-04-14T00:28:26.627Z,33.20
2018-04-14T00:30:53.081Z,33.50
2018-04-14T00:33:19.555Z,30.07
2018-04-14T00:35:45.976Z,32.60
2018-04-14T00:38:12.406Z,32.83
2018-04-14T00:40:38.842Z,32.37
2018-04-14T00:43:05.280Z,33.23
2018-04-14T00:45:31.763Z,29.70
2018-04-14T00:47:58.961Z,29.90
2018-04-14T00:50:25.409Z,31.90
2018-04-14T00:52:51.844Z,34.93
2018-04-14T00:55:19.646Z,33.83
2018-04-14T00:57:46.126Z,32.50
2018-04-14T01:00:12.772Z,29.50
2018-04-14T01:02:39.862Z,30.43
2018-04-14T01:05:06.448Z,32.40
2018-04-14T01:07:32.885Z,31.97
2018-04-14T01:09:59.337Z,28.67
2018-04-14T01:12:25.787Z,28.43
2018-04-14T01:14:52.219Z,32.67
2018-04-14T01:17:18.642Z,31.47
2018-04-14T01:19:45.123Z,28.37
2018-04-14T01:22:12.364Z,27.10
2018-04-14T01:24:39.608Z,32.40
2018-04-14T01:27:06.054Z,26.47
2018-04-14T01:29:33.260Z,24.47
2018-04-14T01:31:59.727Z,25.57
2018-04-14T01:34:27.762Z,27.67
2018-04-14T01:36:54.255Z,27.50
2018-04-14T01:39:21.447Z,28.27
2018-04-14T01:41:48.174Z,26.80
2018-04-14T01:44:14.684Z,23.90
2018-04-14T01:46:41.885Z,24.33
2018-04-14T01:49:08.370Z,28.93
2018-04-14T01:51:35.554Z,25.80
2018-04-14T01:54:03.130Z,27.50
2018-04-14T01:56:29.599Z,26.17
2018-04-14T01:58:56.776Z,27.10
2018-04-14T02:01:23.238Z,25.90
2018-04-14T02:03:49.715Z,27.30
2018-04-14T02:06:16.715Z,27.93
2018-04-14T02:08:43.168Z,27.70
2018-04-14T02:11:09.659Z,26.40
2018-04-14T02:13:36.846Z,27.73
2018-04-14T02:16:03.291Z,25.97
2018-04-14T02:18:29.715Z,25.60
2018-04-14T02:20:56.205Z,27.10
2018-04-14T02:23:22.695Z,25.87
2018-04-14T02:25:49.150Z,25.53
2018-04-14T02:28:15.597Z,23.83
2018-04-14T02:30:42.053Z,24.90
2018-04-14T02:33:08.485Z,30.10
2018-04-14T02:35:34.994Z,25.10
2018-04-14T02:38:02.247Z,25.43
2018-04-14T02:40:28.707Z,27.57
2018-04-14T02:42:55.181Z,23.60
2018-04-14T02:45:21.636Z,25.47
2018-04-14T02:47:49.601Z,24.90
2018-04-14T02:50:16.829Z,21.93
2018-04-14T02:52:43.274Z,23.60
2018-04-14T02:55:10.290Z,26.03
2018-04-14T02:57:36.754Z,26.83
2018-04-14T03:00:04.374Z,26.00
2018-04-14T03:02:30.817Z,28.23
2018-04-14T03:04:57.466Z,29.03
2018-04-14T03:07:23.995Z,25.37
2018-04-14T03:09:50.450Z,27.67
2018-04-14T03:12:16.932Z,25.60
2018-04-14T03:14:43.424Z,26.20
2018-04-14T03:17:10.109Z,25.53
2018-04-14T03:19:37.288Z,26.27
2018-04-14T03:22:03.730Z,25.07
2018-04-14T03:24:30.187Z,25.67
2018-04-14T03:26:56.795Z,24.57
2018-04-14T03:29:23.255Z,22.57
2018-04-14T03:31:49.705Z,23.67
2018-04-14T03:34:16.192Z,24.40
2018-04-14T03:36:42.627Z,25.03
2018-04-14T03:39:09.163Z,23.57
2018-04-14T03:41:35.619Z,22.30
2018-04-14T03:44:02.078Z,19.97
2018-04-14T03:46:28.518Z,23.77
2018-04-14T03:48:54.962Z,23.83
2018-04-14T03:51:22.908Z,26.10
2018-04-14T03:53:49.371Z,23.70
2018-04-14T03:56:16.501Z,25.23
2018-04-14T03:58:42.997Z,21.67
2018-04-14T04:01:09.445Z,25.43
2018-04-14T04:03:35.901Z,23.03
2018-04-14T04:06:02.394Z,23.80
2018-04-14T04:08:28.814Z,22.73
2018-04-14T04:10:55.271Z,25.57
2018-04-14T04:13:21.768Z,23.37
2018-04-14T04:15:48.949Z,24.60
2018-04-14T04:18:15.446Z,22.93
2018-04-14T04:20:56.797Z,21.10
2018-04-14T04:23:35.454Z,21.63
2018-04-14T04:26:02.663Z,22.97
2018-04-14T04:28:29.123Z,23.33
2018-04-14T04:30:55.715Z,21.07
2018-04-14T04:33:22.150Z,23.83
2018-04-14T04:35:48.641Z,22.07
2018-04-14T04:38:15.065Z,22.27
2018-04-14T04:40:42.277Z,24.67
2018-04-14T04:43:08.741Z,25.17
2018-04-14T04:45:35.179Z,22.13
2018-04-14T04:48:01.613Z,22.27
2018-04-14T04:50:28.111Z,21.20
2018-04-14T04:52:54.555Z,23.77
2018-04-14T04:55:21.044Z,23.40
2018-04-14T04:57:47.502Z,24.73
2018-04-14T05:00:13.974Z,21.70
2018-04-14T05:02:40.460Z,21.77
2018-04-14T05:05:06.918Z,24.17
2018-04-14T05:07:33.377Z,23.50
2018-04-14T05:10:00.563Z,21.27
2018-04-14T05:12:26.998Z,22.17
2018-04-14T05:14:53.446Z,21.10
2018-04-14T05:17:19.888Z,23.10
2018-04-14T05:19:47.227Z,23.50
2018-04-14T05:22:14.978Z,23.07
2018-04-14T05:24:41.439Z,24.17
2018-04-14T05:27:07.873Z,23.57
2018-04-14T05:29:34.308Z,21.00
2018-04-14T05:32:07.688Z,21.10
2018-04-14T05:34:34.117Z,21.47
2018-04-14T05:37:01.514Z,21.47
2018-04-14T05:39:29.429Z,22.40
2018-04-14T05:41:55.871Z,23.10
2018-04-14T05:44:22.300Z,23.57
2018-04-14T05:46:48.746Z,24.23
2018-04-14T05:49:16.139Z,24.47
2018-04-14T05:51:42.622Z,23.97
2018-04-14T05:54:09.068Z,24.93
2018-04-14T05:56:35.503Z,25.50
2018-04-14T05:59:01.934Z,25.13
2018-04-14T06:01:28.355Z,26.07
2018-04-14T06:03:54.790Z,24.70
2018-04-14T06:06:21.253Z,26.50
2018-04-14T06:08:47.716Z,27.67
2018-04-14T06:11:14.891Z,25.20
2018-04-14T06:13:41.326Z,26.83
2018-04-14T06:16:08.482Z,28.60
2018-04-14T06:18:34.919Z,28.43
2018-04-14T06:21:01.362Z,30.57
2018-04-14T06:23:27.791Z,31.87
2018-04-14T06:25:54.223Z,32.00
2018-04-14T06:28:20.638Z,32.27
2018-04-14T06:30:47.785Z,36.87
2018-04-14T06:33:14.247Z,38.20
2018-04-14T06:35:40.698Z,36.80
2018-04-14T06:38:07.145Z,37.50
2018-04-14T06:40:33.564Z,38.63
2018-04-14T06:42:59.984Z,39.43
2018-04-14T06:45:26.422Z,40.30
2018-04-14T06:47:52.836Z,38.07
2018-04-14T06:50:19.254Z,40.73
2018-04-14T06:52:45.662Z,39.87
2018-04-14T06:55:12.079Z,41.80
2018-04-14T06:57:38.491Z,41.77
2018-04-14T07:00:04.916Z,44.03
2018-04-14T07:02:31.355Z,44.10
2018-04-14T07:04:57.809Z,46.93
2018-04-14T07:07:24.218Z,49.00
2018-04-14T07:09:50.645Z,46.80
2018-04-14T07:12:17.058Z,47.37
2018-04-14T07:14:44.229Z,48.60
2018-04-14T07:17:10.636Z,47.67
2018-04-14T07:19:37.823Z,46.20
2018-04-14T07:22:04.268Z,44.17
2018-04-14T07:24:30.718Z,48.97
2018-04-14T07:26:57.134Z,48.03
2018-04-14T07:29:23.554Z,46.23
2018-04-14T07:31:49.980Z,46.03
2018-04-14T07:34:16.447Z,41.37
2018-04-14T07:36:42.876Z,44.43
2018-04-14T07:39:09.324Z,41.40
2018-04-14T07:41:35.756Z,41.90
2018-04-14T07:44:02.194Z,41.40
2018-04-14T07:46:28.604Z,40.63
2018-04-14T07:48:55.022Z,39.63
2018-04-14T07:51:21.468Z,36.73
2018-04-14T07:53:47.887Z,38.83
2018-04-14T07:56:14.334Z,38.07
2018-04-14T07:58:40.772Z,39.47
2018-04-14T08:01:07.210Z,39.27
2018-04-14T08:03:33.686Z,38.13
2018-04-14T08:06:00.118Z,39.57
2018-04-14T08:08:27.281Z,35.33
2018-04-14T08:10:54.440Z,39.87
2018-04-14T08:13:20.988Z,38.63
2018-04-14T08:15:47.426Z,36.03
2018-04-14T08:18:13.858Z,38.50
2018-04-14T08:20:40.315Z,39.43
2018-04-14T08:23:06.734Z,39.13
2018-04-14T08:25:33.198Z,36.50
2018-04-14T08:27:59.705Z,39.10
2018-04-14T08:30:26.130Z,37.50
2018-04-14T08:32:52.581Z,38.50
2018-04-14T08:35:19.005Z,40.80
2018-04-14T08:37:45.465Z,38.63
2018-04-14T08:40:11.899Z,37.07
2018-04-14T08:42:38.358Z,39.80
2018-04-14T08:45:06.221Z,40.57
2018-04-14T08:47:32.660Z,40.27
2018-04-14T08:49:59.850Z,37.80
2018-04-14T08:52:26.313Z,39.70
2018-04-14T08:54:52.773Z,35.77
2018-04-14T08:57:19.826Z,37.97
2018-04-14T08:59:47.027Z,40.57
2018-04-14T09:02:13.482Z,38.90
2018-04-14T09:04:39.904Z,39.70
2018-04-14T09:07:06.336Z,38.20
2018-04-14T09:09:32.760Z,38.37
2018-04-14T09:11:59.188Z,42.57
2018-04-14T09:14:25.636Z,40.47
2018-04-14T09:16:52.064Z,39.97
2018-04-14T09:19:18.508Z,43.40
2018-04-14T09:21:44.931Z,41.13
2018-04-14T09:24:11.368Z,40.23
2018-04-14T09:26:37.792Z,39.93
2018-04-14T09:29:04.198Z,39.97
2018-04-14T09:31:31.422Z,40.00
2018-04-14T09:33:57.834Z,40.17
2018-04-14T09:36:24.277Z,42.27
2018-04-14T09:38:50.710Z,39.43
2018-04-14T09:41:17.132Z,44.07
2018-04-14T09:43:43.574Z,42.83
2018-04-14T09:46:10.010Z,42.03
2018-04-14T09:48:36.447Z,43.23
2018-04-14T09:51:02.880Z,42.43
2018-04-14T09:53:29.306Z,40.90
2018-04-14T09:55:55.723Z,41.77
2018-04-14T09:58:22.149Z,42.00
2018-04-14T10:00:54.496Z,41.57
2018-04-14T10:03:22.764Z,40.70
2018-04-14T10:05:49.935Z,40.23
2018-04-14T10:08:16.360Z,39.40
2018-04-14T10:10:42.784Z,41.20
2018-04-14T10:13:09.202Z,39.63
2018-04-14T10:15:36.379Z,37.03
2018-04-14T10:18:02.827Z,36.30
2018-04-14T10:20:29.257Z,36.00
2018-04-14T10:22:55.669Z,38.53
2018-04-14T10:25:22.847Z,39.50
2018-04-14T10:27:49.301Z,38.83
2018-04-14T10:30:15.773Z,38.67
2018-04-14T10:32:42.944Z,36.60
2018-04-14T10:35:09.381Z,38.93
2018-04-14T10:37:35.821Z,35.87
2018-04-14T10:40:02.233Z,37.90
2018-04-14T10:42:28.638Z,38.00
2018-04-14T10:44:56.153Z,38.40
2018-04-14T10:47:22.585Z,35.73
2018-04-14T10:49:48.995Z,36.97
2018-04-14T10:52:15.440Z,35.57
2018-04-14T10:54:41.855Z,37.10
2018-04-14T10:57:09.037Z,37.67
2018-04-14T10:59:35.463Z,36.70
2018-04-14T11:02:01.872Z,34.17
2018-04-14T11:04:29.055Z,33.30
2018-04-14T11:06:55.497Z,31.00
2018-04-14T11:09:21.913Z,35.97
2018-04-14T11:11:48.339Z,38.57
2018-04-14T11:14:14.773Z,36.63
2018-04-14T11:16:41.238Z,35.37
2018-04-14T11:19:07.667Z,38.07
2018-04-14T11:21:34.178Z,36.47
2018-04-14T11:24:00.596Z,35.17
2018-04-14T11:26:27.751Z,33.83
2018-04-14T11:28:54.929Z,35.03
2018-04-14T11:31:21.403Z,34.43
2018-04-14T11:33:47.804Z,33.07
2018-04-14T11:36:14.236Z,35.87
2018-04-14T11:38:40.651Z,35.77
2018-04-14T11:41:07.083Z,34.90
2018-04-14T11:43:33.481Z,35.57
2018-04-14T11:45:59.919Z,36.17
2018-04-14T11:48:27.053Z,30.40
2018-04-14T11:50:53.573Z,33.20
2018-04-14T11:53:19.967Z,33.57
2018-04-14T11:55:46.383Z,33.63
2018-04-14T11:58:12.799Z,34.40
2018-04-14T12:00:39.257Z,34.23
2018-04-14T12:03:06.405Z,32.47
2018-04-14T12:05:33.576Z,31.33
2018-04-14T12:07:59.997Z,30.67
2018-04-14T12:10:26.418Z,31.50
2018-04-14T12:12:52.852Z,31.40
2018-04-14T12:15:20.029Z,32.67
2018-04-14T12:17:46.464Z,32.33
2018-04-14T12:20:12.892Z,33.13
2018-04-14T12:22:39.366Z,32.37
2018-04-14T12:25:05.810Z,32.13
2018-04-14T12:27:32.231Z,30.47
2018-04-14T12:29:58.655Z,29.97
2018-04-14T12:32:25.076Z,29.73
2018-04-14T12:34:51.485Z,31.13
2018-04-14T12:37:17.915Z,31.23
2018-04-14T12:39:45.059Z,30.00
2018-04-14T12:42:12.240Z,31.63
2018-04-14T12:44:38.680Z,31.43
2018-04-14T12:47:05.116Z,30.77
2018-04-14T12:49:31.537Z,30.43
2018-04-14T12:51:57.946Z,33.27
2018-04-14T12:54:24.370Z,32.30
2018-04-14T12:56:51.550Z,33.63
2018-04-14T12:59:17.989Z,32.50
2018-04-14T13:01:44.438Z,32.73
2018-04-14T13:04:10.856Z,32.10
2018-04-14T13:06:37.262Z,32.07
2018-04-14T13:09:04.504Z,32.63
2018-04-14T13:11:30.934Z,30.40
2018-04-14T13:13:59.587Z,33.97
2018-04-14T13:16:26.001Z,32.27
2018-04-14T13:18:52.448Z,32.13
2018-04-14T13:21:19.489Z,33.10
2018-04-14T13:23:45.912Z,31.20
2018-04-14T13:26:12.346Z,31.53
2018-04-14T13:28:38.767Z,29.77
2018-04-14T13:31:05.202Z,29.57
2018-04-14T13:33:31.638Z,30.37
2018-04-14T13:35:58.081Z,31.73
2018-04-14T13:38:24.523Z,31.13
2018-04-14T13:40:50.943Z,29.70
2018-04-14T13:43:17.352Z,29.60
2018-04-14T13:45:43.781Z,30.40
2018-04-14T13:48:10.933Z,27.50
2018-04-14T13:50:37.340Z,29.80
2018-04-14T13:53:03.761Z,28.83
2018-04-14T13:55:30.183Z,26.90
2018-04-14T13:57:56.604Z,28.40
2018-04-14T14:00:23.020Z,25.60
2018-04-14T14:02:49.444Z,26.80
2018-04-14T14:05:15.872Z,26.57
2018-04-14T14:07:42.286Z,27.80
2018-04-14T14:10:09.448Z,27.00
2018-04-14T14:12:35.886Z,25.37
2018-04-14T14:15:03.091Z,28.03
2018-04-14T14:17:29.514Z,24.30
2018-04-14T14:19:55.934Z,26.87
2018-04-14T14:22:22.359Z,25.97
2018-04-14T14:24:48.789Z,22.83
2018-04-14T14:27:15.208Z,22.10
2018-04-14T14:29:41.624Z,25.50
2018-04-14T14:32:08.777Z,24.37
2018-04-14T14:34:35.946Z,22.67
2018-04-14T14:37:02.378Z,22.17
2018-04-14T14:39:28.810Z,22.43
2018-04-14T14:41:55.246Z,24.03
2018-04-14T14:44:21.671Z,22.60
2018-04-14T14:46:48.103Z,25.10
2018-04-14T14:49:16.378Z,25.30
2018-04-14T14:51:42.903Z,23.80
2018-04-14T14:54:10.058Z,25.27
2018-04-14T14:56:37.208Z,24.33
2018-04-14T14:59:04.389Z,23.37
2018-04-14T15:01:30.853Z,23.43
2018-04-14T15:03:57.289Z,24.67
2018-04-14T15:06:23.722Z,26.50
2018-04-14T15:08:50.139Z,23.63
2018-04-14T15:11:16.563Z,23.60
2018-04-14T15:13:43.009Z,23.97
2018-04-14T15:16:09.429Z,22.73
2018-04-14T15:18:35.873Z,20.67
2018-04-14T15:21:02.294Z,21.67
2018-04-14T15:23:28.713Z,22.47
2018-04-14T15:25:55.150Z,23.70
2018-04-14T15:28:21.570Z,22.70
2018-04-14T15:30:48.718Z,21.67
2018-04-14T15:33:15.876Z,22.10
2018-04-14T15:35:42.310Z,20.67
2018-04-14T15:38:08.735Z,21.57
2018-04-14T15:40:35.165Z,22.47
2018-04-14T15:43:02.351Z,23.10
2018-04-14T15:45:28.785Z,22.83
2018-04-14T15:47:56.411Z,21.67
2018-04-14T15:50:22.833Z,22.13
2018-04-14T15:52:50.016Z,21.47
2018-04-14T15:55:16.435Z,22.13
2018-04-14T15:57:44.095Z,22.67
2018-04-14T16:00:11.316Z,21.37
2018-04-14T16:02:37.738Z,23.20
2018-04-14T16:05:04.168Z,23.30
2018-04-14T16:07:30.600Z,24.33
2018-04-14T16:09:57.037Z,23.13
2018-04-14T16:12:23.457Z,24.77
2018-04-14T16:14:49.904Z,24.77
2018-04-14T16:17:16.323Z,26.00
2018-04-14T16:19:42.735Z,26.43
2018-04-14T16:22:10.446Z,27.63
2018-04-14T16:24:36.868Z,27.97
2018-04-14T16:27:03.347Z,30.60
2018-04-14T16:29:30.550Z,27.93
2018-04-14T16:31:56.970Z,28.17
2018-04-14T16:34:23.397Z,28.57
2018-04-14T16:36:49.826Z,28.77
2018-04-14T16:39:16.251Z,28.03
2018-04-14T16:41:42.686Z,30.43
2018-04-14T16:44:09.106Z,31.57
2018-04-14T16:46:35.556Z,30.83
2018-04-14T16:49:02.008Z,31.33
2018-04-14T16:51:28.426Z,31.17
2018-04-14T16:53:54.859Z,30.03
2018-04-14T16:56:21.277Z,31.53
2018-04-14T16:58:47.753Z,32.53
2018-04-14T17:01:14.190Z,30.43
2018-04-14T17:03:40.620Z,31.93
2018-04-14T17:06:07.045Z,29.53
2018-04-14T17:08:33.473Z,30.57
2018-04-14T17:10:59.891Z,30.53
2018-04-14T17:13:26.341Z,29.20
2018-04-14T17:15:52.752Z,29.70
2018-04-14T17:18:19.167Z,30.93
2018-04-14T17:20:45.599Z,30.90
2018-04-14T17:23:12.760Z,30.70
2018-04-14T17:25:39.181Z,29.43
2018-04-14T17:28:06.334Z,31.47
2018-04-14T17:30:32.753Z,29.77
2018-04-14T17:32:59.234Z,31.73
2018-04-14T17:35:25.666Z,32.13
2018-04-14T17:37:52.095Z,31.37
2018-04-14T17:40:18.499Z,33.70
2018-04-14T17:42:45.652Z,32.87
2018-04-14T17:45:12.813Z,32.73
2018-04-14T17:47:39.257Z,33.10
2018-04-14T17:50:05.693Z,33.97
2018-04-14T17:52:32.114Z,32.37
2018-04-14T17:54:58.547Z,32.57
2018-04-14T17:57:24.967Z,33.37
2018-04-14T17:59:51.997Z,33.90
2018-04-14T18:02:18.447Z,35.83
2018-04-14T18:04:44.855Z,37.07
2018-04-14T18:07:11.281Z,37.73
2018-04-14T18:09:37.711Z,39.77
2018-04-14T18:12:04.146Z,44.13
2018-04-14T18:14:30.566Z,46.27
2018-04-14T18:16:57.995Z,47.00
2018-04-14T18:19:24.417Z,50.10
2018-04-14T18:21:50.873Z,48.00
2018-04-14T18:24:17.304Z,49.87
2018-04-14T18:26:43.738Z,51.70
2018-04-14T18:29:10.169Z,51.03
2018-04-14T18:31:36.574Z,51.07
2018-04-14T18:34:03.759Z,50.27
2018-04-14T18:36:30.206Z,43.93
2018-04-14T18:38:56.647Z,46.53
2018-04-14T18:41:23.071Z,59.40
2018-04-14T18:43:49.500Z,62.07
2018-04-14T18:46:15.952Z,71.10
2018-04-14T18:48:42.389Z,77.00
2018-04-14T18:51:08.808Z,72.83
2018-04-14T18:53:35.254Z,104.03
2018-04-14T18:56:02.448Z,75.57
2018-04-14T18:58:28.908Z,78.20
2018-04-14T19:00:55.337Z,74.47
2018-04-14T19:03:21.770Z,90.10
2018-04-14T19:05:48.213Z,89.90
2018-04-14T19:08:14.604Z,101.23
2018-04-14T19:10:41.027Z,104.73
2018-04-14T19:13:07.435Z,69.37
2018-04-14T19:15:33.863Z,65.50
2018-04-14T19:18:00.338Z,59.20
2018-04-14T19:20:26.744Z,56.30
2018-04-14T19:22:53.168Z,59.73
2018-04-14T19:25:19.585Z,69.77
2018-04-14T19:27:46.043Z,67.10
2018-04-14T19:30:12.528Z,67.40
2018-04-14T19:32:38.961Z,68.40
2018-04-14T19:35:05.413Z,80.73
2018-04-14T19:37:31.851Z,84.63
2018-04-14T19:39:58.295Z,59.37
2018-04-14T19:42:24.715Z,63.70
2018-04-14T19:44:51.152Z,74.97
2018-04-14T19:47:19.046Z,75.50
2018-04-14T19:49:52.336Z,80.77
2018-04-14T19:52:18.788Z,66.77
2018-04-14T19:54:46.708Z,80.40
2018-04-14T19:57:13.118Z,83.47
2018-04-14T19:59:40.265Z,78.50
2018-04-14T20:02:07.439Z,81.27
2018-04-14T20:04:33.857Z,75.43
2018-04-14T20:07:00.379Z,82.70
2018-04-14T20:09:26.807Z,69.23
2018-04-14T20:11:53.964Z,61.07
2018-04-14T20:14:20.384Z,75.13
2018-04-14T20:16:46.827Z,66.70
2018-04-14T20:19:13.266Z,71.10
2018-04-14T20:21:40.046Z,70.60
2018-04-14T20:24:06.485Z,65.73
2018-04-14T20:26:32.915Z,84.13
2018-04-14T20:28:59.352Z,79.63
2018-04-14T20:31:25.952Z,90.33
2018-04-14T20:33:53.184Z,69.47
2018-04-14T20:36:21.108Z,75.77
2018-04-14T20:38:47.562Z,88.47
2018-04-14T20:41:14.161Z,73.50
2018-04-14T20:43:40.585Z,93.80
2018-04-14T20:46:07.037Z,80.93
2018-04-14T20:48:33.455Z,72.57
2018-04-14T20:50:59.862Z,78.53
2018-04-14T20:53:27.052Z,80.87
2018-04-14T20:55:53.511Z,76.80
2018-04-14T20:58:19.955Z,75.43
2018-04-14T21:00:46.390Z,82.17
2018-04-14T21:03:12.819Z,78.93
2018-04-14T21:05:39.256Z,95.40
2018-04-14T21:08:05.663Z,88.77
2018-04-14T21:10:32.099Z,94.13
2018-04-14T21:12:58.522Z,83.37
2018-04-14T21:15:24.963Z,76.87
2018-04-14T21:17:51.387Z,74.80
2018-04-14T21:20:17.803Z,89.77
2018-04-14T21:22:45.053Z,87.43
2018-04-14T21:25:11.497Z,75.47
2018-04-14T21:27:37.948Z,67.70
2018-04-14T21:30:04.397Z,66.07
2018-04-14T21:32:30.837Z,77.30
2018-04-14T21:34:57.285Z,72.40
2018-04-14T21:37:23.739Z,65.97
2018-04-14T21:39:50.915Z,80.10
2018-04-14T21:42:17.334Z,78.37
2018-04-14T21:44:43.795Z,81.00
2018-04-14T21:47:10.271Z,74.57
2018-04-14T21:49:37.674Z,71.60
2018-04-14T21:52:04.142Z,88.93
2018-04-14T21:54:30.595Z,93.77
2018-04-14T21:56:57.027Z,86.07
2018-04-14T21:59:23.452Z,72.77
2018-04-14T22:01:49.904Z,81.13
2018-04-14T22:04:16.324Z,76.17
2018-04-14T22:06:42.779Z,81.33
2018-04-14T22:09:10.701Z,81.87
2018-04-14T22:11:44.191Z,78.43
2018-04-14T22:14:10.692Z,80.20
2018-04-14T22:16:37.875Z,77.77
2018-04-14T22:19:04.386Z,84.57
2018-04-14T22:21:30.805Z,76.93
2018-04-14T22:23:58.014Z,74.97
2018-04-14T22:26:24.469Z,73.57
2018-04-14T22:28:51.099Z,76.37
2018-04-14T22:31:17.558Z,76.93
2018-04-14T22:33:43.982Z,86.60
2018-04-14T22:36:10.465Z,91.07
2018-04-14T22:38:36.918Z,76.43
2018-04-14T22:41:03.348Z,88.77
2018-04-14T22:43:29.794Z,84.57
2018-04-14T22:45:56.232Z,94.20
2018-04-14T22:48:22.716Z,92.23
2018-04-14T22:50:49.151Z,79.83
2018-04-14T22:53:16.467Z,82.30
2018-04-14T22:55:42.893Z,77.90
2018-04-14T22:58:09.322Z,79.30
2018-04-14T23:00:35.797Z,80.13
2018-04-14T23:03:02.992Z,96.03
2018-04-14T23:05:29.458Z,91.83
2018-04-14T23:07:55.910Z,90.87
2018-04-14T23:10:22.378Z,104.57
2018-04-14T23:12:48.825Z,80.57
2018-04-14T23:15:15.270Z,82.50
2018-04-14T23:17:41.695Z,102.93
2018-04-14T23:20:08.139Z,92.87
2018-04-14T23:22:34.564Z,78.27
2018-04-14T23:25:02.570Z,75.80
2018-04-14T23:27:29.026Z,90.73
2018-04-14T23:29:56.228Z,78.53
2018-04-14T23:32:22.667Z,74.97
2018-04-14T23:34:49.108Z,75.70
2018-04-14T23:37:16.878Z,92.70
2018-04-14T23:39:43.307Z,76.80
2018-04-14T23:42:09.718Z,87.30
2018-04-14T23:44:36.158Z,84.00
2018-04-14T23:47:02.606Z,80.87
2018-04-14T23:49:29.195Z,79.13
2018-04-14T23:51:55.666Z,69.57
2018-04-14T23:54:22.123Z,94.17
2018-04-14T23:56:48.577Z,86.60
2018-04-14T23:59:14.993Z,96.30
